createdAt,value
2022-12-04T00:00:24.744Z,74.38
2022-12-04T00:03:11.246Z,74.35
2022-12-04T00:05:37.931Z,73.87
2022-12-04T00:08:04.831Z,73.62
2022-12-04T00:10:31.921Z,73.84
2022-12-04T00:12:58.424Z,73.91
2022-12-04T00:15:26.289Z,73.59
2022-12-04T00:17:54.916Z,73.89
2022-12-04T00:20:22.671Z,74.40
2022-12-04T00:22:49.552Z,74.07
2022-12-04T00:25:16.466Z,74.15
2022-12-04T00:27:42.968Z,74.28
2022-12-04T00:30:09.933Z,74.14
2022-12-04T00:32:36.546Z,74.06
2022-12-04T00:35:03.615Z,73.64
2022-12-04T00:37:30.455Z,73.15
2022-12-04T00:39:57.430Z,72.81
2022-12-04T00:42:24.154Z,72.89
2022-12-04T00:44:50.775Z,72.99
2022-12-04T00:47:17.273Z,72.68
2022-12-04T00:49:43.957Z,72.64
2022-12-04T00:52:10.447Z,72.26
2022-12-04T00:54:37.030Z,72.06
2022-12-04T00:57:03.706Z,71.80
2022-12-04T00:59:30.325Z,72.01
2022-12-04T01:01:57.007Z,72.30
2022-12-04T01:04:23.549Z,72.82
2022-12-04T01:06:50.408Z,73.05
2022-12-04T01:09:16.934Z,73.10
2022-12-04T01:11:43.493Z,73.35
2022-12-04T01:14:10.130Z,75.83
2022-12-04T01:16:37.870Z,77.09
2022-12-04T01:19:06.178Z,78.30
2022-12-04T01:21:33.294Z,77.58
2022-12-04T01:24:00.044Z,76.55
2022-12-04T01:26:27.328Z,78.93
2022-12-04T01:28:54.033Z,80.01
2022-12-04T01:31:21.531Z,80.50
2022-12-04T01:33:48.431Z,81.85
2022-12-04T01:36:17.004Z,80.10
2022-12-04T01:38:43.853Z,78.16
2022-12-04T01:41:11.712Z,77.56
2022-12-04T01:43:39.270Z,77.01
2022-12-04T01:46:06.353Z,75.99
2022-12-04T01:48:34.604Z,74.24
2022-12-04T01:51:06.767Z,73.00
2022-12-04T01:53:35.443Z,73.13
2022-12-04T01:56:02.541Z,74.70
2022-12-04T01:58:31.314Z,75.33
2022-12-04T02:01:02.603Z,74.18
2022-12-04T02:03:33.403Z,73.29
2022-12-04T02:06:00.094Z,73.26
2022-12-04T02:08:27.507Z,73.95
2022-12-04T02:11:00.992Z,73.67
2022-12-04T02:13:35.724Z,74.14
2022-12-04T02:16:02.252Z,74.29
2022-12-04T02:18:45.910Z,74.32
2022-12-04T02:21:18.370Z,74.20
2022-12-04T02:23:54.163Z,73.58
2022-12-04T02:26:38.213Z,73.55
2022-12-04T02:29:10.880Z,73.84
2022-12-04T02:31:47.913Z,74.55
2022-12-04T02:34:20.285Z,75.35
2022-12-04T02:36:49.639Z,75.18
2022-12-04T02:39:22.513Z,74.99
2022-12-04T02:42:15.512Z,75.49
2022-12-04T02:45:03.067Z,76.16
2022-12-04T02:47:30.049Z,75.93
2022-12-04T02:50:01.177Z,75.39
2022-12-04T02:52:51.074Z,75.51
2022-12-04T02:55:41.160Z,75.03
2022-12-04T02:58:15.996Z,74.95
2022-12-04T03:00:44.933Z,74.50
2022-12-04T03:03:14.893Z,73.96
2022-12-04T03:05:47.324Z,73.12
2022-12-04T03:08:16.621Z,72.99
2022-12-04T03:10:46.523Z,72.84
2022-12-04T03:13:18.423Z,72.70
2022-12-04T03:15:51.945Z,72.76
2022-12-04T03:18:23.977Z,72.92
2022-12-04T03:20:54.587Z,72.89
2022-12-04T03:23:24.305Z,73.17
2022-12-04T03:25:58.990Z,73.43
2022-12-04T03:28:31.028Z,73.62
2022-12-04T03:31:02.838Z,73.66
2022-12-04T03:33:33.211Z,73.51
2022-12-04T03:36:07.166Z,73.72
2022-12-04T03:38:54.231Z,73.56
2022-12-04T03:41:36.099Z,73.28
2022-12-04T03:44:15.043Z,73.35
2022-12-04T03:47:02.066Z,73.66
2022-12-04T03:49:40.477Z,74.59
2022-12-04T03:52:13.207Z,74.61
2022-12-04T03:54:43.172Z,74.81
2022-12-04T03:57:15.097Z,74.72
2022-12-04T03:59:45.001Z,74.46
2022-12-04T04:02:14.977Z,74.05
2022-12-04T04:04:43.378Z,72.30
2022-12-04T04:07:12.771Z,72.68
2022-12-04T04:09:42.040Z,79.03
2022-12-04T04:12:14.558Z,81.09
2022-12-04T04:15:09.693Z,81.12
2022-12-04T04:18:07.688Z,81.98
2022-12-04T04:20:55.509Z,82.15
2022-12-04T04:23:41.458Z,81.04
2022-12-04T04:26:08.457Z,78.77
2022-12-04T04:28:36.938Z,77.39
2022-12-04T04:31:09.628Z,76.89
2022-12-04T04:33:42.195Z,76.05
2022-12-04T04:36:14.462Z,76.07
2022-12-04T04:38:55.210Z,75.78
2022-12-04T04:41:26.741Z,75.08
2022-12-04T04:43:53.518Z,75.21
2022-12-04T04:46:22.893Z,75.44
2022-12-04T04:48:55.032Z,78.15
2022-12-04T04:51:21.763Z,79.33
2022-12-04T04:53:50.412Z,80.26
2022-12-04T04:56:17.659Z,80.74
2022-12-04T04:58:44.215Z,81.19
2022-12-04T05:01:12.636Z,80.68
2022-12-04T05:03:39.692Z,79.29
2022-12-04T05:06:06.505Z,78.60
2022-12-04T05:08:33.349Z,77.62
2022-12-04T05:11:00.139Z,77.58
2022-12-04T05:13:27.903Z,77.08
2022-12-04T05:16:09.684Z,76.09
2022-12-04T05:18:36.858Z,75.75
2022-12-04T05:21:07.371Z,75.55
2022-12-04T05:23:34.366Z,75.42
2022-12-04T05:26:01.673Z,75.37
2022-12-04T05:28:28.382Z,75.29
2022-12-04T05:30:56.061Z,75.11
2022-12-04T05:33:23.149Z,74.50
2022-12-04T05:36:00.200Z,74.02
2022-12-04T05:38:27.002Z,73.92
2022-12-04T05:40:53.753Z,73.75
2022-12-04T05:43:20.304Z,73.33
2022-12-04T05:45:47.014Z,73.24
2022-12-04T05:48:13.721Z,73.59
2022-12-04T05:50:40.633Z,74.12
2022-12-04T05:53:07.467Z,73.50
2022-12-04T05:55:34.149Z,73.66
2022-12-04T05:58:00.806Z,73.67
2022-12-04T06:00:27.795Z,74.04
2022-12-04T06:02:54.580Z,74.01
2022-12-04T06:05:22.129Z,74.01
2022-12-04T06:07:48.841Z,74.58
2022-12-04T06:10:15.426Z,74.14
2022-12-04T06:12:41.902Z,74.09
2022-12-04T06:15:08.700Z,74.45
2022-12-04T06:17:35.364Z,74.79
2022-12-04T06:20:05.240Z,74.53
2022-12-04T06:22:34.796Z,74.84
2022-12-04T06:25:01.330Z,74.68
2022-12-04T06:27:28.792Z,74.76
2022-12-04T06:29:56.003Z,74.50
2022-12-04T06:32:22.788Z,74.50
2022-12-04T06:34:50.905Z,74.11
2022-12-04T06:37:17.690Z,74.38
2022-12-04T06:39:44.337Z,74.61
2022-12-04T06:42:10.826Z,74.06
2022-12-04T06:44:37.318Z,74.16
2022-12-04T06:47:04.682Z,74.59
2022-12-04T06:49:31.367Z,74.98
2022-12-04T06:51:57.916Z,75.38
2022-12-04T06:54:25.554Z,75.09
2022-12-04T06:56:52.316Z,75.29
2022-12-04T06:59:18.998Z,75.70
2022-12-04T07:01:45.592Z,75.52
2022-12-04T07:04:12.109Z,75.46
2022-12-04T07:06:38.997Z,75.05
2022-12-04T07:09:07.302Z,75.32
2022-12-04T07:11:34.081Z,75.10
2022-12-04T07:14:01.008Z,74.88
2022-12-04T07:16:28.346Z,73.80
2022-12-04T07:18:58.400Z,73.40
2022-12-04T07:21:26.583Z,72.60
2022-12-04T07:23:54.650Z,71.90
2022-12-04T07:26:22.386Z,71.74
2022-12-04T07:28:49.430Z,71.23
2022-12-04T07:31:18.044Z,71.66
2022-12-04T07:33:45.389Z,72.53
2022-12-04T07:36:14.271Z,72.01
2022-12-04T07:38:41.012Z,72.33
2022-12-04T07:41:08.571Z,71.79
2022-12-04T07:43:35.410Z,71.08
2022-12-04T07:46:10.313Z,70.20
2022-12-04T07:48:37.077Z,69.66
2022-12-04T07:51:11.264Z,68.89
2022-12-04T07:53:38.125Z,68.72
2022-12-04T07:56:05.288Z,67.74
2022-12-04T07:58:32.202Z,66.97
2022-12-04T08:01:09.210Z,66.49
2022-12-04T08:03:36.420Z,66.16
2022-12-04T08:06:03.712Z,65.92
2022-12-04T08:08:30.655Z,66.11
2022-12-04T08:10:57.435Z,66.22
2022-12-04T08:13:24.074Z,66.48
2022-12-04T08:15:50.933Z,66.97
2022-12-04T08:18:17.757Z,66.97
2022-12-04T08:20:44.270Z,67.31
2022-12-04T08:23:10.882Z,67.18
2022-12-04T08:25:38.668Z,67.13
2022-12-04T08:28:05.345Z,66.88
2022-12-04T08:30:32.931Z,66.50
2022-12-04T08:32:59.585Z,67.00
2022-12-04T08:35:26.193Z,67.52
2022-12-04T08:37:53.019Z,67.65
2022-12-04T08:40:19.697Z,67.72
2022-12-04T08:42:46.176Z,67.84
2022-12-04T08:45:12.766Z,67.91
2022-12-04T08:47:39.277Z,68.07
2022-12-04T08:50:06.533Z,68.54
2022-12-04T08:52:33.291Z,69.49
2022-12-04T08:54:59.787Z,69.80
2022-12-04T08:57:26.358Z,69.79
2022-12-04T08:59:52.942Z,69.81
2022-12-04T09:02:20.271Z,69.53
2022-12-04T09:04:46.956Z,69.57
2022-12-04T09:07:13.611Z,69.89
2022-12-04T09:09:44.943Z,69.97
2022-12-04T09:12:14.481Z,70.18
2022-12-04T09:14:41.627Z,69.61
2022-12-04T09:17:08.253Z,68.16
2022-12-04T09:19:36.485Z,68.32
2022-12-04T09:22:03.118Z,67.99
2022-12-04T09:24:30.054Z,67.28
2022-12-04T09:26:56.576Z,67.05
2022-12-04T09:29:23.213Z,67.08
2022-12-04T09:31:49.738Z,67.08
2022-12-04T09:34:16.177Z,66.98
2022-12-04T09:36:42.990Z,67.26
2022-12-04T09:39:09.664Z,67.78
2022-12-04T09:41:36.177Z,67.65
2022-12-04T09:44:14.981Z,67.44
2022-12-04T09:46:58.377Z,67.67
2022-12-04T09:49:24.911Z,67.91
2022-12-04T09:51:53.871Z,67.42
2022-12-04T09:54:22.938Z,67.24
2022-12-04T09:56:54.684Z,67.30
2022-12-04T09:59:24.191Z,67.03
2022-12-04T10:01:50.636Z,66.71
2022-12-04T10:04:18.301Z,66.25
2022-12-04T10:07:07.016Z,66.39
2022-12-04T10:09:36.287Z,66.79
2022-12-04T10:12:22.870Z,66.19
2022-12-04T10:14:49.391Z,65.59
2022-12-04T10:17:32.751Z,65.48
2022-12-04T10:19:59.779Z,65.17
2022-12-04T10:22:41.552Z,65.45
2022-12-04T10:25:11.785Z,65.62
2022-12-04T10:27:48.637Z,66.39
2022-12-04T10:30:18.005Z,67.74
2022-12-04T10:32:45.680Z,68.19
2022-12-04T10:35:20.785Z,68.09
2022-12-04T10:37:51.264Z,67.03
2022-12-04T10:40:20.983Z,66.26
2022-12-04T10:42:57.754Z,65.66
2022-12-04T10:45:24.314Z,65.01
2022-12-04T10:47:51.828Z,64.27
2022-12-04T10:50:20.146Z,63.91
2022-12-04T10:52:47.353Z,63.45
2022-12-04T10:55:14.749Z,62.72
2022-12-04T10:57:45.453Z,61.12
2022-12-04T11:00:26.421Z,60.32
2022-12-04T11:02:54.083Z,60.29
2022-12-04T11:05:25.780Z,60.09
2022-12-04T11:07:54.085Z,60.42
2022-12-04T11:10:23.499Z,60.94
2022-12-04T11:12:57.601Z,60.72
2022-12-04T11:15:24.253Z,61.18
2022-12-04T11:17:52.236Z,61.60
2022-12-04T11:20:18.842Z,62.31
2022-12-04T11:22:49.095Z,63.19
2022-12-04T11:25:18.953Z,63.89
2022-12-04T11:27:47.337Z,65.92
2022-12-04T11:30:18.226Z,66.86
2022-12-04T11:32:45.753Z,66.39
2022-12-04T11:35:16.764Z,65.51
2022-12-04T11:37:52.366Z,65.33
2022-12-04T11:40:19.540Z,64.72
2022-12-04T11:42:58.128Z,64.29
2022-12-04T11:45:24.971Z,64.30
2022-12-04T11:48:02.395Z,64.80
2022-12-04T11:50:47.982Z,66.12
2022-12-04T11:53:18.259Z,67.72
2022-12-04T11:55:57.084Z,68.68
2022-12-04T11:58:44.445Z,69.93
2022-12-04T12:01:20.271Z,71.26
2022-12-04T12:04:02.212Z,71.70
2022-12-04T12:06:28.683Z,71.05
2022-12-04T12:08:55.392Z,70.43
2022-12-04T12:11:24.641Z,69.59
2022-12-04T12:13:54.294Z,70.40
2022-12-04T12:16:24.060Z,70.05
2022-12-04T12:19:03.955Z,68.61
2022-12-04T12:21:39.026Z,68.20
2022-12-04T12:24:24.399Z,68.18
2022-12-04T12:27:00.736Z,68.75
2022-12-04T12:29:36.633Z,68.62
2022-12-04T12:32:03.314Z,69.31
2022-12-04T12:34:40.539Z,70.54
2022-12-04T12:37:12.095Z,71.50
2022-12-04T12:39:39.958Z,71.59
2022-12-04T12:42:12.897Z,70.93
2022-12-04T12:44:42.479Z,69.49
2022-12-04T12:47:13.914Z,68.34
2022-12-04T12:49:49.907Z,67.14
2022-12-04T12:52:34.982Z,65.02
2022-12-04T12:55:24.587Z,63.96
2022-12-04T12:57:57.536Z,62.84
2022-12-04T13:00:25.143Z,62.28
2022-12-04T13:03:01.648Z,61.85
2022-12-04T13:05:34.393Z,61.29
2022-12-04T13:08:20.400Z,60.70
2022-12-04T13:10:57.854Z,60.64
2022-12-04T13:13:26.872Z,60.49
2022-12-04T13:15:56.250Z,60.46
2022-12-04T13:18:43.282Z,60.08
2022-12-04T13:21:20.056Z,59.97
2022-12-04T13:24:06.940Z,59.97
2022-12-04T13:26:40.901Z,59.82
2022-12-04T13:29:10.278Z,59.73
2022-12-04T13:31:59.277Z,59.97
2022-12-04T13:34:26.328Z,60.30
2022-12-04T13:36:52.809Z,60.46
2022-12-04T13:39:19.313Z,61.04
2022-12-04T13:41:46.305Z,61.16
2022-12-04T13:44:20.308Z,61.46
2022-12-04T13:46:53.186Z,62.00
2022-12-04T13:49:19.725Z,62.13
2022-12-04T13:51:47.593Z,62.41
2022-12-04T13:54:14.100Z,62.47
2022-12-04T13:56:42.639Z,62.52
2022-12-04T13:59:31.519Z,62.88
2022-12-04T14:02:03.483Z,63.30
2022-12-04T14:04:35.977Z,63.93
2022-12-04T14:07:03.457Z,64.36
2022-12-04T14:09:47.947Z,64.96
2022-12-04T14:12:16.090Z,65.77
2022-12-04T14:15:02.800Z,66.41
2022-12-04T14:17:31.306Z,66.51
2022-12-04T14:20:04.287Z,66.93
2022-12-04T14:22:34.010Z,67.09
2022-12-04T14:25:18.546Z,67.46
2022-12-04T14:27:51.099Z,67.46
2022-12-04T14:30:22.446Z,67.99
2022-12-04T14:32:50.670Z,68.65
2022-12-04T14:35:19.921Z,68.50
2022-12-04T14:38:06.059Z,68.80
2022-12-04T14:40:35.723Z,69.06
2022-12-04T14:43:02.359Z,69.52
2022-12-04T14:45:47.964Z,70.27
2022-12-04T14:48:25.533Z,70.94
2022-12-04T14:50:58.328Z,71.90
2022-12-04T14:53:24.763Z,72.27
2022-12-04T14:56:04.649Z,71.20
2022-12-04T14:58:37.217Z,71.45
2022-12-04T15:01:05.190Z,72.03
2022-12-04T15:03:36.238Z,73.27
2022-12-04T15:06:08.242Z,73.38
2022-12-04T15:08:35.092Z,73.32
2022-12-04T15:11:24.146Z,72.58
2022-12-04T15:13:50.926Z,72.96
2022-12-04T15:16:19.254Z,72.90
2022-12-04T15:18:52.750Z,72.61
2022-12-04T15:21:19.788Z,72.25
2022-12-04T15:23:46.443Z,71.92
2022-12-04T15:26:18.165Z,72.09
2022-12-04T15:28:47.802Z,72.29
2022-12-04T15:31:42.750Z,72.72
2022-12-04T15:34:14.037Z,72.47
2022-12-04T15:36:40.505Z,72.18
2022-12-04T15:39:07.190Z,71.88
2022-12-04T15:41:35.158Z,71.71
2022-12-04T15:44:02.342Z,71.65
2022-12-04T15:46:33.882Z,71.62
2022-12-04T15:49:04.249Z,71.18
2022-12-04T15:51:30.773Z,70.68
2022-12-04T15:53:57.488Z,70.12
2022-12-04T15:56:24.884Z,70.10
2022-12-04T15:58:56.929Z,69.89
2022-12-04T16:01:23.509Z,69.99
2022-12-04T16:03:54.904Z,69.83
2022-12-04T16:06:23.641Z,69.81
2022-12-04T16:08:53.485Z,69.90
2022-12-04T16:11:19.977Z,69.64
2022-12-04T16:13:48.037Z,69.54
2022-12-04T16:16:16.363Z,69.75
2022-12-04T16:18:43.165Z,70.36
2022-12-04T16:21:16.546Z,71.21
2022-12-04T16:23:43.759Z,72.56
2022-12-04T16:26:14.386Z,73.27
2022-12-04T16:28:41.289Z,73.12
2022-12-04T16:31:11.982Z,73.25
2022-12-04T16:33:39.206Z,73.01
2022-12-04T16:36:06.215Z,73.10
2022-12-04T16:38:33.298Z,73.61
2022-12-04T16:40:59.775Z,73.80
2022-12-04T16:43:26.367Z,73.86
2022-12-04T16:45:54.087Z,75.05
2022-12-04T16:48:20.976Z,74.80
2022-12-04T16:50:47.612Z,74.37
2022-12-04T16:53:16.221Z,73.55
2022-12-04T16:55:44.061Z,73.47
2022-12-04T16:58:10.664Z,72.71
2022-12-04T17:00:38.557Z,72.04
2022-12-04T17:03:05.179Z,71.58
2022-12-04T17:05:35.067Z,70.92
2022-12-04T17:08:01.954Z,70.61
2022-12-04T17:10:29.614Z,70.31
2022-12-04T17:12:56.135Z,70.11
2022-12-04T17:15:22.651Z,70.08
2022-12-04T17:17:49.419Z,70.01
2022-12-04T17:20:17.452Z,69.19
2022-12-04T17:22:44.572Z,69.12
2022-12-04T17:25:12.054Z,69.42
2022-12-04T17:27:38.851Z,69.99
2022-12-04T17:30:06.194Z,69.97
2022-12-04T17:32:34.361Z,70.18
2022-12-04T17:35:01.959Z,70.23
2022-12-04T17:37:28.657Z,70.36
2022-12-04T17:39:55.551Z,70.84
2022-12-04T17:42:22.240Z,71.31
2022-12-04T17:44:48.912Z,71.76
2022-12-04T17:47:16.193Z,71.52
2022-12-04T17:49:43.174Z,71.40
2022-12-04T17:52:10.426Z,71.09
2022-12-04T17:54:36.953Z,71.35
2022-12-04T17:57:03.425Z,71.69
2022-12-04T17:59:30.182Z,71.47
2022-12-04T18:01:56.866Z,71.29
2022-12-04T18:04:24.427Z,71.28
2022-12-04T18:06:52.129Z,71.14
2022-12-04T18:09:18.979Z,70.92
2022-12-04T18:11:46.542Z,70.94
2022-12-04T18:14:14.968Z,71.04
2022-12-04T18:16:43.891Z,70.78
2022-12-04T18:19:12.043Z,71.21
2022-12-04T18:21:38.640Z,71.47
2022-12-04T18:24:06.125Z,71.26
2022-12-04T18:26:40.167Z,71.27
2022-12-04T18:29:07.487Z,71.25
2022-12-04T18:31:34.369Z,71.28
2022-12-04T18:34:00.967Z,71.21
2022-12-04T18:36:28.548Z,71.22
2022-12-04T18:38:56.840Z,71.25
2022-12-04T18:41:23.898Z,71.25
2022-12-04T18:43:51.238Z,71.23
2022-12-04T18:46:18.262Z,71.47
2022-12-04T18:48:45.991Z,71.53
2022-12-04T18:51:15.823Z,71.50
2022-12-04T18:53:42.558Z,71.23
2022-12-04T18:56:09.710Z,70.99
2022-12-04T18:58:36.244Z,70.92
2022-12-04T19:01:07.344Z,70.93
2022-12-04T19:03:34.541Z,71.13
2022-12-04T19:06:02.042Z,71.17
2022-12-04T19:08:33.607Z,71.11
2022-12-04T19:11:09.059Z,71.45
2022-12-04T19:13:35.872Z,71.26
2022-12-04T19:16:03.292Z,71.10
2022-12-04T19:18:30.469Z,71.32
2022-12-04T19:20:57.250Z,71.44
2022-12-04T19:23:24.013Z,71.39
2022-12-04T19:25:55.284Z,71.42
2022-12-04T19:28:22.409Z,71.51
2022-12-04T19:30:49.042Z,71.44
2022-12-04T19:33:15.679Z,71.23
2022-12-04T19:35:42.869Z,71.28
2022-12-04T19:38:09.572Z,71.34
2022-12-04T19:40:36.207Z,71.51
2022-12-04T19:43:03.298Z,71.91
2022-12-04T19:45:30.065Z,71.96
2022-12-04T19:47:56.889Z,71.97
2022-12-04T19:50:23.487Z,71.88
2022-12-04T19:52:50.353Z,72.23
2022-12-04T19:55:17.011Z,71.98
2022-12-04T19:57:43.579Z,72.49
2022-12-04T20:00:10.401Z,72.35
2022-12-04T20:02:39.626Z,72.01
2022-12-04T20:05:06.667Z,71.99
2022-12-04T20:07:33.251Z,71.71
2022-12-04T20:10:00.307Z,71.41
2022-12-04T20:12:27.525Z,71.96
2022-12-04T20:14:54.337Z,71.74
2022-12-04T20:17:20.852Z,71.71
2022-12-04T20:19:47.606Z,71.74
2022-12-04T20:22:14.131Z,71.61
2022-12-04T20:24:40.783Z,71.68
2022-12-04T20:27:07.549Z,71.95
2022-12-04T20:29:34.127Z,72.14
2022-12-04T20:32:00.796Z,71.74
2022-12-04T20:34:28.518Z,71.93
2022-12-04T20:36:55.093Z,71.48
2022-12-04T20:39:21.609Z,71.65
2022-12-04T20:41:48.387Z,71.69
2022-12-04T20:44:18.505Z,71.55
2022-12-04T20:46:45.543Z,71.28
2022-12-04T20:49:21.624Z,70.93
2022-12-04T20:51:49.154Z,70.89
2022-12-04T20:54:17.972Z,70.69
2022-12-04T20:56:45.333Z,70.26
2022-12-04T20:59:13.334Z,70.10
2022-12-04T21:01:40.651Z,70.13
2022-12-04T21:04:08.066Z,70.90
2022-12-04T21:06:36.168Z,70.88
2022-12-04T21:09:05.270Z,70.77
2022-12-04T21:11:33.608Z,71.06
2022-12-04T21:14:19.602Z,70.82
2022-12-04T21:16:47.001Z,71.02
2022-12-04T21:19:14.959Z,71.01
2022-12-04T21:21:41.810Z,70.77
2022-12-04T21:24:09.514Z,70.61
2022-12-04T21:26:36.264Z,70.21
2022-12-04T21:29:03.970Z,69.63
2022-12-04T21:31:30.980Z,70.04
2022-12-04T21:33:58.575Z,69.91
2022-12-04T21:36:25.928Z,69.94
2022-12-04T21:38:53.036Z,69.70
2022-12-04T21:41:38.568Z,69.12
2022-12-04T21:44:08.167Z,68.16
2022-12-04T21:46:35.158Z,67.48
2022-12-04T21:49:02.769Z,67.85
2022-12-04T21:51:55.571Z,67.53
2022-12-04T21:54:16.333Z,67.36
2022-12-04T21:56:43.416Z,69.06
2022-12-04T21:59:10.497Z,68.34
2022-12-04T22:01:37.275Z,68.12
2022-12-04T22:04:04.250Z,66.89
2022-12-04T22:06:35.534Z,65.40
2022-12-04T22:09:03.097Z,65.65
2022-12-04T22:11:29.822Z,65.13
2022-12-04T22:13:56.558Z,65.38
2022-12-04T22:16:30.056Z,64.73
2022-12-04T22:18:58.199Z,65.13
2022-12-04T22:21:25.791Z,65.83
2022-12-04T22:23:59.464Z,67.25
2022-12-04T22:26:26.815Z,66.92
2022-12-04T22:28:53.515Z,67.75
2022-12-04T22:31:21.351Z,67.14
2022-12-04T22:33:49.345Z,66.92
2022-12-04T22:36:19.950Z,67.68
2022-12-04T22:39:08.144Z,67.06
2022-12-04T22:41:33.178Z,66.06
2022-12-04T22:43:59.774Z,66.30
2022-12-04T22:46:26.416Z,66.44
2022-12-04T22:48:53.065Z,66.88
2022-12-04T22:51:20.837Z,66.52
2022-12-04T22:53:48.699Z,67.41
2022-12-04T22:56:25.989Z,67.16
2022-12-04T22:58:53.263Z,68.01
2022-12-04T23:01:21.202Z,67.99
2022-12-04T23:03:48.191Z,68.14
2022-12-04T23:06:15.300Z,68.45
2022-12-04T23:08:42.670Z,68.83
2022-12-04T23:11:11.237Z,68.58
2022-12-04T23:13:38.366Z,69.52
2022-12-04T23:16:09.309Z,70.04
2022-12-04T23:18:36.596Z,69.07
2022-12-04T23:21:08.117Z,68.73
2022-12-04T23:23:40.987Z,67.90
2022-12-04T23:26:09.223Z,67.47
2022-12-04T23:28:35.812Z,66.98
2022-12-04T23:31:03.261Z,65.71
2022-12-04T23:33:30.927Z,64.81
2022-12-04T23:35:58.761Z,63.77
2022-12-04T23:38:25.900Z,61.70
2022-12-04T23:41:01.432Z,63.14
2022-12-04T23:43:27.903Z,62.54
2022-12-04T23:45:54.595Z,63.59
2022-12-04T23:48:21.191Z,63.27
2022-12-04T23:50:47.801Z,64.15
2022-12-04T23:53:14.282Z,64.00
2022-12-04T23:55:40.797Z,64.07
2022-12-04T23:58:07.431Z,65.04
